Wetterdaten: aktuell Donnerstag, 27.06.2019 07:59
Datum Zeit Temp. A. Feuchte A. Luftdruck Regen Wind Richtung Richtung Taupunkt Windchill Windben
27.06.2019 07:59 24,5 C 72 % 1021,6 hPa 0,0 l/m 9,7 km/h (2 Bft) S-SW 202 19,1 C 23,7 C 12,9 km/h (3 Bft)
27.06.2019 06:59 21,6 C 82 % 1021,8 hPa 0,0 l/m 6,4 km/h (2 Bft) S 180 18,4 C 21,6 C 8,0 km/h (2 Bft)
27.06.2019 05:59 19,5 C 85 % 1022,0 hPa 0,0 l/m 1,6 km/h (1 Bft) S-SO 157 16,9 C 19,5 C 3,2 km/h (1 Bft)
27.06.2019 04:59 17,1 C 93 % 1022,0 hPa 0,0 l/m 1,6 km/h (1 Bft) S-SO 157 16,0 C 17,1 C 3,2 km/h (1 Bft)
27.06.2019 03:59 17,2 C 93 % 1021,7 hPa 0,0 l/m 1,6 km/h (1 Bft) S-SO 157 16,1 C 17,2 C 1,6 km/h (1 Bft)
27.06.2019 02:59 17,8 C 92 % 1021,8 hPa 0,0 l/m 1,6 km/h (1 Bft) S-SO 157 16,5 C 17,8 C 1,6 km/h (1 Bft)
27.06.2019 01:59 17,9 C 92 % 1021,9 hPa 0,0 l/m 3,2 km/h (1 Bft) S-SO 157 16,6 C 17,9 C 4,8 km/h (1 Bft)
27.06.2019 00:59 18,9 C 91 % 1022,3 hPa 0,0 l/m 0,0 km/h (0 Bft) N 0 17,4 C 18,9 C 0,0 km/h (0 Bft)
26.06.2019 23:59 19,5 C 88 % 1022,4 hPa 0,0 l/m 1,6 km/h (1 Bft) S-SO 157 17,5 C 19,5 C 3,2 km/h (1 Bft)
26.06.2019 22:59 20,0 C 89 % 1022,3 hPa 0,0 l/m 0,0 km/h (0 Bft) S-SO 157 18,1 C 20,0 C 1,6 km/h (1 Bft)
26.06.2019 21:59 21,8 C 83 % 1022,4 hPa 0,0 l/m 0,0 km/h (0 Bft) N 0 18,8 C 21,8 C 0,0 km/h (0 Bft)
26.06.2019 20:59 24,2 C 74 % 1022,3 hPa 0,0 l/m 0,0 km/h (0 Bft) NO 45 19,3 C 24,2 C 1,6 km/h (1 Bft)
26.06.2019 19:59 27,4 C 69 % 1021,8 hPa 0,0 l/m 0,0 km/h (0 Bft) N 0 21,2 C 27,4 C 0,0 km/h (0 Bft)
26.06.2019 18:59 30,3 C 60 % 1021,8 hPa 0,0 l/m 1,6 km/h (1 Bft) O-NO 67 21,6 C 30,3 C 1,6 km/h (1 Bft)
26.06.2019 17:59 32,4 C 50 % 1021,8 hPa 0,0 l/m 0,0 km/h (0 Bft) N 0 20,6 C 32,4 C 0,0 km/h (0 Bft)
26.06.2019 16:59 33,5 C 42 % 1022,3 hPa 0,0 l/m 4,8 km/h (1 Bft) NO 45 18,8 C 33,5 C 8,0 km/h (2 Bft)
26.06.2019 15:59 33,3 C 41 % 1022,7 hPa 0,0 l/m 3,2 km/h (1 Bft) O-NO 67 18,2 C 33,3 C 4,8 km/h (1 Bft)
26.06.2019 14:59 32,9 C 46 % 1022,9 hPa 0,0 l/m 3,2 km/h (1 Bft) O-NO 67 19,7 C 32,9 C 8,0 km/h (2 Bft)
26.06.2019 13:59 32,6 C 45 % 1023,1 hPa 0,0 l/m 4,8 km/h (1 Bft) O-NO 67 19,1 C 32,6 C 6,4 km/h (2 Bft)
26.06.2019 12:59 32,1 C 47 % 1023,4 hPa 0,0 l/m 1,6 km/h (1 Bft) NO 45 19,3 C 32,1 C 3,2 km/h (1 Bft)
26.06.2019 11:59 31,3 C 50 % 1023,7 hPa 0,0 l/m 3,2 km/h (1 Bft) O-SO 112 19,6 C 31,3 C 4,8 km/h (1 Bft)
26.06.2019 10:59 29,7 C 56 % 1023,7 hPa 0,0 l/m 1,6 km/h (1 Bft) O-NO 67 20,0 C 29,7 C 3,2 km/h (1 Bft)
26.06.2019 09:59 28,0 C 60 % 1023,8 hPa 0,0 l/m 3,2 km/h (1 Bft) N-NO 22 19,5 C 28,0 C 4,8 km/h (1 Bft)
26.06.2019 08:59 25,8 C 66 % 1023,7 hPa 0,0 l/m 1,6 km/h (1 Bft) NW 315 19,0 C 25,8 C 3,2 km/h (1 Bft)
26.06.2019 08:00 23,8 C 77 % 1023,6 hPa 0,0 l/m 1,6 km/h (1 Bft) NO 45 19,5 C 23,8 C 1,6 km/h (1 Bft)
_ Min-Zeit 04:42 16:05 07:46 - 08:01 - - 04:42 04:42 08:21
Minimum _ 16,9 C 37 % 1021,6 hPa - 0,0 km/h (0 Bft) - - 15,8 C 16,9 C 0,0 km/h (0 Bft)
_ Max-Zeit 15:50 04:02 10:34 08:00 06:19 - - 19:14 15:52 14:37
Maximum _ 33,7 C 94 % 1023,9 hPa 0,0 l/m 11,3 km/h
SW (2 Bft)
- - 23,3 C 33,7 C 14,5 km/h
NO (3 Bft)
Durchschnitt _ 25,2 C 70 % 1022,6 hPa #0,0 l/m 2,3 km/h (1 Bft) S-SO - 18,7 C 25,2 C 3,5 km/h (1 Bft)